首页
METAR-TAF:

METAR-TAF

机场 :

辛菲羅波爾國際機場

辛菲罗波尔, 俄罗斯

纬度: 45-03-08N, 经度: 033-58-31E, 海拔: 195米

当前天气观测

该预报发布于33分钟前的06:30 UTC
风速2节,风向多变
温度 23°C
湿度 53%
气压 1008 hPa
能见度10公里或以上
1500米以下无云,无积雨云

METAR: URFF 170630Z VRB01MPS CAVOK 23/13 Q1008 R01/090095 NOSIG

时间: 10:03 (07:03 UTC)

预报

该预报发布于2小时和10分钟前的04:53 UTC
预报有效从17日的 06点(UTC)到 18日的 06点(UTC)
风速6节,风向北转西北
能见度10公里或以上
散云层高于2000英尺, 积雨云.
成为
从 17日的 11点(UTC)到 17日的 13点(UTC)
风速12节,风向西,有时为21节阵风
从 17日的 1700点(UTC)
风速6节,风向南转南东
能见度10公里或以上
1500米以下无云,无积雨云

TAF: URFF 170453Z 1706/1806 34003MPS 9999 SCT020CB BECMG 1711/1713 28006G11MPS FM171700 16003MPS CAVOK

超过4000个机场的气象观测和天气预报(METAR&TAF报告)。

可查询的气象台以黄色和红色小点在地图上表示。

将鼠标移到小点上方,可查看气象台名称。

然后点击查看天气观测和预报。

如需切换地图:点击带黑十字的绿色按钮放大地图;点击带横线的绿色按钮缩小地图;或者点击绿色箭头查看邻近地区的地图。


METAR-TAF: